sensor_id;sensor_type;location;lat;lon;timestamp;P1;durP1;ratioP1;P2;durP2;ratioP2
52210;SDS011;38179;52.756;6.906;2023-05-25T00:02:10;14.80;;;13.27;;
52210;SDS011;38179;52.756;6.906;2023-05-25T00:04:39;17.42;;;14.07;;
52210;SDS011;38179;52.756;6.906;2023-05-25T00:07:06;15.30;;;13.80;;
52210;SDS011;38179;52.756;6.906;2023-05-25T00:09:32;16.80;;;14.38;;
52210;SDS011;38179;52.756;6.906;2023-05-25T00:11:57;14.85;;;13.25;;
52210;SDS011;38179;52.756;6.906;2023-05-25T00:14:24;14.30;;;12.88;;
52210;SDS011;38179;52.756;6.906;2023-05-25T00:16:50;16.90;;;13.55;;
52210;SDS011;38179;52.756;6.906;2023-05-25T00:19:16;18.75;;;13.57;;
52210;SDS011;38179;52.756;6.906;2023-05-25T00:21:44;18.05;;;14.68;;
52210;SDS011;38179;52.756;6.906;2023-05-25T00:24:12;18.30;;;13.68;;
52210;SDS011;38179;52.756;6.906;2023-05-25T00:26:38;15.05;;;13.48;;
52210;SDS011;38179;52.756;6.906;2023-05-25T00:29:04;19.10;;;14.07;;
52210;SDS011;38179;52.756;6.906;2023-05-25T00:31:31;20.20;;;14.00;;
52210;SDS011;38179;52.756;6.906;2023-05-25T00:33:57;17.10;;;14.60;;
52210;SDS011;38179;52.756;6.906;2023-05-25T00:36:24;18.38;;;14.25;;
52210;SDS011;38179;52.756;6.906;2023-05-25T00:38:50;15.80;;;14.10;;
52210;SDS011;38179;52.756;6.906;2023-05-25T00:41:16;17.80;;;14.55;;
52210;SDS011;38179;52.756;6.906;2023-05-25T00:43:46;15.05;;;13.63;;
52210;SDS011;38179;52.756;6.906;2023-05-25T00:46:13;15.88;;;14.18;;
52210;SDS011;38179;52.756;6.906;2023-05-25T00:48:40;18.13;;;13.45;;
52210;SDS011;38179;52.756;6.906;2023-05-25T00:51:07;16.30;;;14.02;;
52210;SDS011;38179;52.756;6.906;2023-05-25T00:53:35;17.00;;;13.50;;
52210;SDS011;38179;52.756;6.906;2023-05-25T00:56:07;19.10;;;14.00;;
52210;SDS011;38179;52.756;6.906;2023-05-25T00:58:35;17.67;;;14.60;;
52210;SDS011;38179;52.756;6.906;2023-05-25T01:01:05;18.73;;;14.38;;
52210;SDS011;38179;52.756;6.906;2023-05-25T01:03:37;14.68;;;13.20;;
52210;SDS011;38179;52.756;6.906;2023-05-25T01:06:10;18.63;;;14.55;;
52210;SDS011;38179;52.756;6.906;2023-05-25T01:08:43;20.15;;;13.50;;
52210;SDS011;38179;52.756;6.906;2023-05-25T01:11:13;20.65;;;14.63;;
52210;SDS011;38179;52.756;6.906;2023-05-25T01:13:41;16.50;;;14.18;;
52210;SDS011;38179;52.756;6.906;2023-05-25T01:16:07;18.98;;;14.38;;
52210;SDS011;38179;52.756;6.906;2023-05-25T01:18:34;17.15;;;14.10;;
52210;SDS011;38179;52.756;6.906;2023-05-25T01:21:04;17.67;;;14.77;;
52210;SDS011;38179;52.756;6.906;2023-05-25T01:23:45;17.02;;;13.40;;
52210;SDS011;38179;52.756;6.906;2023-05-25T01:26:15;17.00;;;14.35;;
52210;SDS011;38179;52.756;6.906;2023-05-25T01:28:43;17.40;;;14.35;;
52210;SDS011;38179;52.756;6.906;2023-05-25T01:31:15;16.95;;;14.57;;
52210;SDS011;38179;52.756;6.906;2023-05-25T01:33:46;17.05;;;14.95;;
52210;SDS011;38179;52.756;6.906;2023-05-25T01:36:14;20.95;;;15.05;;
52210;SDS011;38179;52.756;6.906;2023-05-25T01:38:40;17.17;;;14.40;;
52210;SDS011;38179;52.756;6.906;2023-05-25T01:41:06;20.40;;;15.23;;
52210;SDS011;38179;52.756;6.906;2023-05-25T01:43:32;17.00;;;13.73;;
52210;SDS011;38179;52.756;6.906;2023-05-25T01:46:01;19.52;;;14.25;;
52210;SDS011;38179;52.756;6.906;2023-05-25T01:48:53;17.45;;;13.77;;
52210;SDS011;38179;52.756;6.906;2023-05-25T01:51:37;18.13;;;14.35;;
52210;SDS011;38179;52.756;6.906;2023-05-25T01:54:13;18.88;;;14.95;;
52210;SDS011;38179;52.756;6.906;2023-05-25T01:56:45;16.77;;;14.07;;
52210;SDS011;38179;52.756;6.906;2023-05-25T01:59:13;17.70;;;13.63;;
52210;SDS011;38179;52.756;6.906;2023-05-25T02:01:40;16.67;;;14.00;;
52210;SDS011;38179;52.756;6.906;2023-05-25T02:04:07;17.27;;;13.48;;
52210;SDS011;38179;52.756;6.906;2023-05-25T02:06:37;16.08;;;14.43;;
52210;SDS011;38179;52.756;6.906;2023-05-25T02:09:03;17.05;;;14.30;;
52210;SDS011;38179;52.756;6.906;2023-05-25T02:11:28;16.27;;;13.77;;
52210;SDS011;38179;52.756;6.906;2023-05-25T02:13:54;16.10;;;14.20;;
52210;SDS011;38179;52.756;6.906;2023-05-25T02:16:20;15.93;;;14.05;;
52210;SDS011;38179;52.756;6.906;2023-05-25T02:18:46;19.70;;;14.57;;
52210;SDS011;38179;52.756;6.906;2023-05-25T02:21:12;18.33;;;14.45;;
52210;SDS011;38179;52.756;6.906;2023-05-25T02:23:38;16.75;;;14.10;;
52210;SDS011;38179;52.756;6.906;2023-05-25T02:26:03;16.42;;;14.05;;
52210;SDS011;38179;52.756;6.906;2023-05-25T02:28:29;19.73;;;14.38;;
52210;SDS011;38179;52.756;6.906;2023-05-25T02:30:55;16.60;;;13.52;;
52210;SDS011;38179;52.756;6.906;2023-05-25T02:33:21;17.00;;;15.10;;
52210;SDS011;38179;52.756;6.906;2023-05-25T02:35:47;16.30;;;14.60;;
52210;SDS011;38179;52.756;6.906;2023-05-25T02:38:13;17.88;;;13.98;;
52210;SDS011;38179;52.756;6.906;2023-05-25T02:40:39;17.20;;;13.35;;
52210;SDS011;38179;52.756;6.906;2023-05-25T02:43:05;18.17;;;14.82;;
52210;SDS011;38179;52.756;6.906;2023-05-25T02:45:31;17.55;;;14.40;;
52210;SDS011;38179;52.756;6.906;2023-05-25T02:47:57;16.15;;;13.65;;
52210;SDS011;38179;52.756;6.906;2023-05-25T02:50:23;15.60;;;14.00;;
52210;SDS011;38179;52.756;6.906;2023-05-25T02:52:49;17.15;;;14.20;;
52210;SDS011;38179;52.756;6.906;2023-05-25T02:55:14;18.15;;;14.63;;
52210;SDS011;38179;52.756;6.906;2023-05-25T02:57:43;14.30;;;12.57;;
52210;SDS011;38179;52.756;6.906;2023-05-25T03:00:09;18.42;;;13.80;;
52210;SDS011;38179;52.756;6.906;2023-05-25T03:02:37;16.95;;;14.60;;
52210;SDS011;38179;52.756;6.906;2023-05-25T03:05:04;17.42;;;14.25;;
52210;SDS011;38179;52.756;6.906;2023-05-25T03:07:30;15.38;;;13.52;;
52210;SDS011;38179;52.756;6.906;2023-05-25T03:09:56;19.80;;;13.65;;
52210;SDS011;38179;52.756;6.906;2023-05-25T03:12:23;16.88;;;14.25;;
52210;SDS011;38179;52.756;6.906;2023-05-25T03:14:49;15.93;;;13.57;;
52210;SDS011;38179;52.756;6.906;2023-05-25T03:17:15;17.45;;;13.73;;
52210;SDS011;38179;52.756;6.906;2023-05-25T03:19:40;20.58;;;14.52;;
52210;SDS011;38179;52.756;6.906;2023-05-25T03:22:08;22.50;;;14.25;;
52210;SDS011;38179;52.756;6.906;2023-05-25T03:24:33;16.27;;;13.65;;
52210;SDS011;38179;52.756;6.906;2023-05-25T03:26:59;15.63;;;14.00;;
52210;SDS011;38179;52.756;6.906;2023-05-25T03:29:26;19.23;;;14.38;;
52210;SDS011;38179;52.756;6.906;2023-05-25T03:31:51;18.85;;;14.63;;
52210;SDS011;38179;52.756;6.906;2023-05-25T03:34:17;20.90;;;14.15;;
52210;SDS011;38179;52.756;6.906;2023-05-25T03:36:43;21.92;;;14.68;;
52210;SDS011;38179;52.756;6.906;2023-05-25T03:39:11;16.98;;;14.18;;
52210;SDS011;38179;52.756;6.906;2023-05-25T03:41:37;15.63;;;13.88;;
52210;SDS011;38179;52.756;6.906;2023-05-25T03:44:03;16.80;;;14.82;;
52210;SDS011;38179;52.756;6.906;2023-05-25T03:46:29;16.25;;;13.80;;
52210;SDS011;38179;52.756;6.906;2023-05-25T03:48:55;18.90;;;14.27;;
52210;SDS011;38179;52.756;6.906;2023-05-25T03:51:21;18.20;;;13.98;;
52210;SDS011;38179;52.756;6.906;2023-05-25T03:53:46;14.93;;;13.02;;
52210;SDS011;38179;52.756;6.906;2023-05-25T03:56:12;18.20;;;14.13;;
52210;SDS011;38179;52.756;6.906;2023-05-25T03:58:38;18.48;;;14.43;;
52210;SDS011;38179;52.756;6.906;2023-05-25T04:01:04;18.58;;;12.90;;
52210;SDS011;38179;52.756;6.906;2023-05-25T04:03:30;15.57;;;13.48;;
52210;SDS011;38179;52.756;6.906;2023-05-25T04:05:56;18.35;;;14.75;;
52210;SDS011;38179;52.756;6.906;2023-05-25T04:08:24;16.05;;;14.35;;
52210;SDS011;38179;52.756;6.906;2023-05-25T04:10:50;19.20;;;13.65;;
52210;SDS011;38179;52.756;6.906;2023-05-25T04:13:16;20.30;;;14.38;;
52210;SDS011;38179;52.756;6.906;2023-05-25T04:15:42;16.88;;;13.30;;
52210;SDS011;38179;52.756;6.906;2023-05-25T04:18:08;20.33;;;14.73;;
52210;SDS011;38179;52.756;6.906;2023-05-25T04:20:34;17.52;;;14.35;;
52210;SDS011;38179;52.756;6.906;2023-05-25T04:23:00;18.77;;;14.70;;
52210;SDS011;38179;52.756;6.906;2023-05-25T04:25:26;16.80;;;14.50;;
52210;SDS011;38179;52.756;6.906;2023-05-25T04:27:51;17.05;;;14.52;;
52210;SDS011;38179;52.756;6.906;2023-05-25T04:30:21;19.42;;;14.15;;
52210;SDS011;38179;52.756;6.906;2023-05-25T04:32:47;17.00;;;15.23;;
52210;SDS011;38179;52.756;6.906;2023-05-25T04:35:13;22.60;;;15.00;;
52210;SDS011;38179;52.756;6.906;2023-05-25T04:37:39;18.52;;;14.65;;
52210;SDS011;38179;52.756;6.906;2023-05-25T04:40:06;17.90;;;15.50;;
52210;SDS011;38179;52.756;6.906;2023-05-25T04:42:35;22.08;;;15.02;;
52210;SDS011;38179;52.756;6.906;2023-05-25T04:45:04;22.88;;;15.52;;
52210;SDS011;38179;52.756;6.906;2023-05-25T04:47:31;18.48;;;15.02;;
52210;SDS011;38179;52.756;6.906;2023-05-25T04:49:58;17.00;;;14.32;;
52210;SDS011;38179;52.756;6.906;2023-05-25T04:52:25;18.85;;;14.13;;
52210;SDS011;38179;52.756;6.906;2023-05-25T04:54:51;17.23;;;15.10;;
52210;SDS011;38179;52.756;6.906;2023-05-25T04:57:17;19.05;;;15.38;;
52210;SDS011;38179;52.756;6.906;2023-05-25T04:59:43;21.00;;;15.23;;
52210;SDS011;38179;52.756;6.906;2023-05-25T05:02:09;21.00;;;16.10;;
52210;SDS011;38179;52.756;6.906;2023-05-25T05:04:35;19.42;;;15.38;;
52210;SDS011;38179;52.756;6.906;2023-05-25T05:07:01;20.73;;;15.73;;
52210;SDS011;38179;52.756;6.906;2023-05-25T05:09:27;17.73;;;14.75;;
52210;SDS011;38179;52.756;6.906;2023-05-25T05:11:53;17.15;;;14.20;;
52210;SDS011;38179;52.756;6.906;2023-05-25T05:14:19;19.73;;;15.63;;
52210;SDS011;38179;52.756;6.906;2023-05-25T05:16:45;19.70;;;15.23;;
52210;SDS011;38179;52.756;6.906;2023-05-25T05:19:12;20.25;;;16.52;;
52210;SDS011;38179;52.756;6.906;2023-05-25T05:21:38;22.20;;;15.73;;
52210;SDS011;38179;52.756;6.906;2023-05-25T05:24:04;25.30;;;17.88;;
52210;SDS011;38179;52.756;6.906;2023-05-25T05:26:30;27.52;;;17.52;;
52210;SDS011;38179;52.756;6.906;2023-05-25T05:28:56;20.38;;;15.85;;
52210;SDS011;38179;52.756;6.906;2023-05-25T05:31:22;21.00;;;16.42;;
52210;SDS011;38179;52.756;6.906;2023-05-25T05:33:49;21.45;;;15.50;;
52210;SDS011;38179;52.756;6.906;2023-05-25T05:36:15;19.40;;;15.93;;
52210;SDS011;38179;52.756;6.906;2023-05-25T05:38:41;19.92;;;15.57;;
52210;SDS011;38179;52.756;6.906;2023-05-25T05:41:07;21.65;;;15.52;;
52210;SDS011;38179;52.756;6.906;2023-05-25T05:43:41;19.25;;;15.13;;
52210;SDS011;38179;52.756;6.906;2023-05-25T05:46:08;19.77;;;16.38;;
52210;SDS011;38179;52.756;6.906;2023-05-25T05:48:35;18.42;;;15.23;;
52210;SDS011;38179;52.756;6.906;2023-05-25T05:51:04;21.15;;;16.50;;
52210;SDS011;38179;52.756;6.906;2023-05-25T05:53:30;21.60;;;16.08;;
52210;SDS011;38179;52.756;6.906;2023-05-25T05:55:57;22.92;;;15.93;;
52210;SDS011;38179;52.756;6.906;2023-05-25T05:58:24;19.58;;;15.50;;
52210;SDS011;38179;52.756;6.906;2023-05-25T06:00:51;23.13;;;15.55;;
52210;SDS011;38179;52.756;6.906;2023-05-25T06:03:18;23.15;;;15.63;;
52210;SDS011;38179;52.756;6.906;2023-05-25T06:05:45;18.38;;;15.25;;
52210;SDS011;38179;52.756;6.906;2023-05-25T06:08:11;22.48;;;15.27;;
52210;SDS011;38179;52.756;6.906;2023-05-25T06:10:37;17.20;;;15.43;;
52210;SDS011;38179;52.756;6.906;2023-05-25T06:13:04;18.38;;;14.70;;
52210;SDS011;38179;52.756;6.906;2023-05-25T06:15:32;22.67;;;15.38;;
52210;SDS011;38179;52.756;6.906;2023-05-25T06:17:57;25.35;;;16.08;;
52210;SDS011;38179;52.756;6.906;2023-05-25T06:20:23;18.50;;;14.35;;
52210;SDS011;38179;52.756;6.906;2023-05-25T06:22:49;25.95;;;15.68;;
52210;SDS011;38179;52.756;6.906;2023-05-25T06:25:15;19.88;;;14.38;;
52210;SDS011;38179;52.756;6.906;2023-05-25T06:27:41;18.50;;;14.45;;
52210;SDS011;38179;52.756;6.906;2023-05-25T06:30:07;22.48;;;15.05;;
52210;SDS011;38179;52.756;6.906;2023-05-25T06:32:33;22.35;;;15.00;;
52210;SDS011;38179;52.756;6.906;2023-05-25T06:34:59;22.08;;;16.27;;
52210;SDS011;38179;52.756;6.906;2023-05-25T06:37:26;19.75;;;14.93;;
52210;SDS011;38179;52.756;6.906;2023-05-25T06:39:59;19.02;;;15.18;;
52210;SDS011;38179;52.756;6.906;2023-05-25T06:42:26;20.38;;;15.68;;
52210;SDS011;38179;52.756;6.906;2023-05-25T06:44:52;24.08;;;15.85;;
52210;SDS011;38179;52.756;6.906;2023-05-25T06:47:18;18.38;;;15.25;;
52210;SDS011;38179;52.756;6.906;2023-05-25T06:49:44;17.75;;;15.02;;
52210;SDS011;38179;52.756;6.906;2023-05-25T06:52:10;18.23;;;15.13;;
52210;SDS011;38179;52.756;6.906;2023-05-25T06:54:36;18.52;;;14.50;;
52210;SDS011;38179;52.756;6.906;2023-05-25T06:57:01;18.75;;;14.57;;
52210;SDS011;38179;52.756;6.906;2023-05-25T06:59:27;23.70;;;15.90;;
52210;SDS011;38179;52.756;6.906;2023-05-25T07:01:53;22.58;;;15.18;;
52210;SDS011;38179;52.756;6.906;2023-05-25T07:04:20;18.20;;;14.82;;
52210;SDS011;38179;52.756;6.906;2023-05-25T07:06:47;18.25;;;14.48;;
52210;SDS011;38179;52.756;6.906;2023-05-25T07:09:13;21.02;;;14.95;;
52210;SDS011;38179;52.756;6.906;2023-05-25T07:11:39;17.52;;;14.20;;
52210;SDS011;38179;52.756;6.906;2023-05-25T07:14:05;20.33;;;14.65;;
52210;SDS011;38179;52.756;6.906;2023-05-25T07:16:31;17.00;;;14.25;;
52210;SDS011;38179;52.756;6.906;2023-05-25T07:18:58;22.13;;;14.70;;
52210;SDS011;38179;52.756;6.906;2023-05-25T07:21:24;21.58;;;14.65;;
52210;SDS011;38179;52.756;6.906;2023-05-25T07:23:50;16.60;;;14.68;;
52210;SDS011;38179;52.756;6.906;2023-05-25T07:26:16;22.50;;;14.52;;
52210;SDS011;38179;52.756;6.906;2023-05-25T07:28:45;18.58;;;14.32;;
52210;SDS011;38179;52.756;6.906;2023-05-25T07:31:11;18.52;;;14.52;;
52210;SDS011;38179;52.756;6.906;2023-05-25T07:33:37;19.42;;;14.80;;
52210;SDS011;38179;52.756;6.906;2023-05-25T07:36:02;15.35;;;13.75;;
52210;SDS011;38179;52.756;6.906;2023-05-25T07:38:28;18.02;;;13.85;;
52210;SDS011;38179;52.756;6.906;2023-05-25T07:40:54;16.52;;;13.15;;
52210;SDS011;38179;52.756;6.906;2023-05-25T07:43:20;21.10;;;14.25;;
52210;SDS011;38179;52.756;6.906;2023-05-25T07:45:46;19.63;;;14.48;;
52210;SDS011;38179;52.756;6.906;2023-05-25T07:48:12;23.73;;;14.93;;
52210;SDS011;38179;52.756;6.906;2023-05-25T07:50:38;16.25;;;14.02;;
52210;SDS011;38179;52.756;6.906;2023-05-25T07:53:04;19.40;;;14.18;;
52210;SDS011;38179;52.756;6.906;2023-05-25T07:55:29;21.23;;;14.35;;
52210;SDS011;38179;52.756;6.906;2023-05-25T07:57:55;18.02;;;14.13;;
52210;SDS011;38179;52.756;6.906;2023-05-25T08:00:21;17.48;;;13.93;;
52210;SDS011;38179;52.756;6.906;2023-05-25T08:02:47;18.77;;;14.50;;
52210;SDS011;38179;52.756;6.906;2023-05-25T08:05:13;19.58;;;14.27;;
52210;SDS011;38179;52.756;6.906;2023-05-25T08:07:39;19.52;;;14.05;;
52210;SDS011;38179;52.756;6.906;2023-05-25T08:10:05;19.45;;;14.13;;
52210;SDS011;38179;52.756;6.906;2023-05-25T08:12:32;18.17;;;14.45;;
52210;SDS011;38179;52.756;6.906;2023-05-25T08:14:58;20.23;;;13.60;;
52210;SDS011;38179;52.756;6.906;2023-05-25T08:17:24;16.35;;;14.48;;
52210;SDS011;38179;52.756;6.906;2023-05-25T08:19:50;23.27;;;15.25;;
52210;SDS011;38179;52.756;6.906;2023-05-25T08:22:16;20.80;;;14.65;;
52210;SDS011;38179;52.756;6.906;2023-05-25T08:24:42;16.27;;;13.90;;
52210;SDS011;38179;52.756;6.906;2023-05-25T08:27:08;17.60;;;14.57;;
52210;SDS011;38179;52.756;6.906;2023-05-25T08:29:34;18.38;;;14.52;;
52210;SDS011;38179;52.756;6.906;2023-05-25T08:32:00;19.30;;;14.30;;
52210;SDS011;38179;52.756;6.906;2023-05-25T08:34:26;19.77;;;14.68;;
52210;SDS011;38179;52.756;6.906;2023-05-25T08:36:53;19.10;;;14.88;;
52210;SDS011;38179;52.756;6.906;2023-05-25T08:39:19;16.88;;;14.38;;
52210;SDS011;38179;52.756;6.906;2023-05-25T08:41:45;19.38;;;15.02;;
52210;SDS011;38179;52.756;6.906;2023-05-25T08:44:11;18.85;;;15.05;;
52210;SDS011;38179;52.756;6.906;2023-05-25T08:46:38;19.73;;;15.32;;
52210;SDS011;38179;52.756;6.906;2023-05-25T08:49:08;21.48;;;15.07;;
52210;SDS011;38179;52.756;6.906;2023-05-25T08:51:36;20.98;;;14.68;;
52210;SDS011;38179;52.756;6.906;2023-05-25T08:54:06;21.23;;;14.88;;
52210;SDS011;38179;52.756;6.906;2023-05-25T08:56:47;21.70;;;14.75;;
52210;SDS011;38179;52.756;6.906;2023-05-25T08:59:25;19.05;;;14.95;;
52210;SDS011;38179;52.756;6.906;2023-05-25T09:05:00;20.85;;;14.57;;
52210;SDS011;38179;52.756;6.906;2023-05-25T09:07:28;20.70;;;14.88;;
52210;SDS011;38179;52.756;6.906;2023-05-25T09:09:54;20.90;;;14.90;;
52210;SDS011;38179;52.756;6.906;2023-05-25T09:12:22;22.90;;;15.32;;
52210;SDS011;38179;52.756;6.906;2023-05-25T09:14:48;23.15;;;15.00;;
52210;SDS011;38179;52.756;6.906;2023-05-25T09:17:15;22.75;;;14.95;;
52210;SDS011;38179;52.756;6.906;2023-05-25T09:19:42;23.83;;;15.85;;
52210;SDS011;38179;52.756;6.906;2023-05-25T09:22:09;21.63;;;15.02;;
52210;SDS011;38179;52.756;6.906;2023-05-25T09:24:35;23.48;;;15.68;;
52210;SDS011;38179;52.756;6.906;2023-05-25T09:27:05;23.73;;;16.20;;
52210;SDS011;38179;52.756;6.906;2023-05-25T09:29:35;22.63;;;16.25;;
52210;SDS011;38179;52.756;6.906;2023-05-25T09:32:02;26.52;;;15.20;;
52210;SDS011;38179;52.756;6.906;2023-05-25T09:34:30;22.48;;;15.45;;
52210;SDS011;38179;52.756;6.906;2023-05-25T09:36:59;24.35;;;15.80;;
52210;SDS011;38179;52.756;6.906;2023-05-25T09:39:28;21.10;;;15.40;;
52210;SDS011;38179;52.756;6.906;2023-05-25T09:41:55;27.35;;;15.57;;
52210;SDS011;38179;52.756;6.906;2023-05-25T09:44:21;25.20;;;16.20;;
52210;SDS011;38179;52.756;6.906;2023-05-25T09:46:47;22.70;;;15.63;;
52210;SDS011;38179;52.756;6.906;2023-05-25T09:49:13;21.67;;;15.50;;
52210;SDS011;38179;52.756;6.906;2023-05-25T09:51:39;23.77;;;15.68;;
52210;SDS011;38179;52.756;6.906;2023-05-25T09:54:08;21.75;;;16.02;;
52210;SDS011;38179;52.756;6.906;2023-05-25T09:56:34;22.83;;;15.93;;
52210;SDS011;38179;52.756;6.906;2023-05-25T09:59:00;19.67;;;15.05;;
52210;SDS011;38179;52.756;6.906;2023-05-25T10:01:27;25.60;;;16.08;;
52210;SDS011;38179;52.756;6.906;2023-05-25T10:03:53;30.65;;;15.45;;
52210;SDS011;38179;52.756;6.906;2023-05-25T10:06:21;24.48;;;15.77;;
52210;SDS011;38179;52.756;6.906;2023-05-25T10:08:47;24.80;;;16.15;;
52210;SDS011;38179;52.756;6.906;2023-05-25T10:11:15;25.95;;;15.38;;
52210;SDS011;38179;52.756;6.906;2023-05-25T10:13:43;27.17;;;16.75;;
52210;SDS011;38179;52.756;6.906;2023-05-25T10:16:10;29.02;;;17.13;;
52210;SDS011;38179;52.756;6.906;2023-05-25T10:18:53;25.65;;;16.10;;
52210;SDS011;38179;52.756;6.906;2023-05-25T10:21:28;24.65;;;15.68;;
52210;SDS011;38179;52.756;6.906;2023-05-25T10:23:57;26.40;;;15.65;;
52210;SDS011;38179;52.756;6.906;2023-05-25T10:26:31;25.48;;;16.35;;
52210;SDS011;38179;52.756;6.906;2023-05-25T10:29:03;33.15;;;16.75;;
52210;SDS011;38179;52.756;6.906;2023-05-25T10:31:30;26.50;;;16.27;;
52210;SDS011;38179;52.756;6.906;2023-05-25T10:33:58;29.83;;;17.17;;
52210;SDS011;38179;52.756;6.906;2023-05-25T10:36:25;22.88;;;16.20;;
52210;SDS011;38179;52.756;6.906;2023-05-25T10:38:52;23.42;;;15.50;;
52210;SDS011;38179;52.756;6.906;2023-05-25T10:41:19;24.23;;;16.23;;
52210;SDS011;38179;52.756;6.906;2023-05-25T10:43:45;28.45;;;15.70;;
52210;SDS011;38179;52.756;6.906;2023-05-25T10:46:12;28.80;;;15.93;;
52210;SDS011;38179;52.756;6.906;2023-05-25T10:48:44;23.23;;;16.13;;
52210;SDS011;38179;52.756;6.906;2023-05-25T10:51:12;27.27;;;16.55;;
52210;SDS011;38179;52.756;6.906;2023-05-25T10:53:57;25.77;;;16.00;;
52210;SDS011;38179;52.756;6.906;2023-05-25T10:56:24;25.23;;;15.65;;
52210;SDS011;38179;52.756;6.906;2023-05-25T10:58:50;24.80;;;15.98;;
52210;SDS011;38179;52.756;6.906;2023-05-25T11:01:17;27.60;;;17.40;;
52210;SDS011;38179;52.756;6.906;2023-05-25T11:06:12;24.15;;;16.15;;
52210;SDS011;38179;52.756;6.906;2023-05-25T11:14:20;25.02;;;16.85;;
52210;SDS011;38179;52.756;6.906;2023-05-25T11:19:52;26.90;;;17.33;;
52210;SDS011;38179;52.756;6.906;2023-05-25T11:22:29;25.23;;;16.00;;
52210;SDS011;38179;52.756;6.906;2023-05-25T11:25:01;23.15;;;15.80;;
52210;SDS011;38179;52.756;6.906;2023-05-25T11:27:29;20.70;;;17.08;;
52210;SDS011;38179;52.756;6.906;2023-05-25T11:29:56;22.87;;;15.80;;
52210;SDS011;38179;52.756;6.906;2023-05-25T11:32:23;19.80;;;15.07;;
52210;SDS011;38179;52.756;6.906;2023-05-25T11:34:51;19.90;;;15.80;;
52210;SDS011;38179;52.756;6.906;2023-05-25T11:37:18;23.75;;;16.35;;
52210;SDS011;38179;52.756;6.906;2023-05-25T11:39:49;24.55;;;16.08;;
52210;SDS011;38179;52.756;6.906;2023-05-25T11:42:22;23.63;;;15.88;;
52210;SDS011;38179;52.756;6.906;2023-05-25T11:44:48;20.65;;;16.40;;
52210;SDS011;38179;52.756;6.906;2023-05-25T11:47:18;21.83;;;15.65;;
52210;SDS011;38179;52.756;6.906;2023-05-25T11:49:47;25.38;;;15.93;;
52210;SDS011;38179;52.756;6.906;2023-05-25T11:52:17;26.52;;;16.65;;
52210;SDS011;38179;52.756;6.906;2023-05-25T11:54:44;23.48;;;16.25;;
52210;SDS011;38179;52.756;6.906;2023-05-25T11:59:50;22.67;;;15.73;;
52210;SDS011;38179;52.756;6.906;2023-05-25T12:02:21;24.05;;;16.50;;
52210;SDS011;38179;52.756;6.906;2023-05-25T12:04:54;26.50;;;16.70;;
52210;SDS011;38179;52.756;6.906;2023-05-25T12:07:22;21.90;;;16.50;;
52210;SDS011;38179;52.756;6.906;2023-05-25T12:10:09;22.02;;;16.55;;
52210;SDS011;38179;52.756;6.906;2023-05-25T12:12:43;25.63;;;16.90;;
52210;SDS011;38179;52.756;6.906;2023-05-25T12:15:12;21.13;;;16.02;;
52210;SDS011;38179;52.756;6.906;2023-05-25T12:17:40;30.80;;;17.98;;
52210;SDS011;38179;52.756;6.906;2023-05-25T12:20:07;23.63;;;17.20;;
52210;SDS011;38179;52.756;6.906;2023-05-25T12:22:35;24.80;;;16.53;;
52210;SDS011;38179;52.756;6.906;2023-05-25T12:25:03;27.52;;;16.88;;
52210;SDS011;38179;52.756;6.906;2023-05-25T12:27:30;24.38;;;17.13;;
52210;SDS011;38179;52.756;6.906;2023-05-25T12:29:57;25.23;;;17.00;;
52210;SDS011;38179;52.756;6.906;2023-05-25T12:32:23;25.90;;;17.70;;
52210;SDS011;38179;52.756;6.906;2023-05-25T12:34:49;23.85;;;16.90;;
52210;SDS011;38179;52.756;6.906;2023-05-25T12:37:16;24.15;;;17.38;;
52210;SDS011;38179;52.756;6.906;2023-05-25T12:39:44;21.02;;;17.00;;
52210;SDS011;38179;52.756;6.906;2023-05-25T12:42:14;24.15;;;17.55;;
52210;SDS011;38179;52.756;6.906;2023-05-25T12:44:41;22.88;;;16.77;;
52210;SDS011;38179;52.756;6.906;2023-05-25T12:47:17;26.83;;;18.25;;
52210;SDS011;38179;52.756;6.906;2023-05-25T12:49:47;22.25;;;17.80;;
52210;SDS011;38179;52.756;6.906;2023-05-25T12:52:30;22.40;;;16.90;;
52210;SDS011;38179;52.756;6.906;2023-05-25T12:55:25;26.42;;;16.73;;
52210;SDS011;38179;52.756;6.906;2023-05-25T12:58:00;25.75;;;17.95;;
52210;SDS011;38179;52.756;6.906;2023-05-25T13:03:04;25.67;;;17.90;;
52210;SDS011;38179;52.756;6.906;2023-05-25T13:05:33;24.65;;;17.73;;
52210;SDS011;38179;52.756;6.906;2023-05-25T13:08:02;25.90;;;17.75;;
52210;SDS011;38179;52.756;6.906;2023-05-25T13:10:29;22.95;;;17.63;;
52210;SDS011;38179;52.756;6.906;2023-05-25T13:12:57;26.52;;;17.83;;
52210;SDS011;38179;52.756;6.906;2023-05-25T13:15:24;28.17;;;18.33;;
52210;SDS011;38179;52.756;6.906;2023-05-25T13:17:51;27.10;;;17.85;;
52210;SDS011;38179;52.756;6.906;2023-05-25T13:20:18;29.08;;;17.20;;
52210;SDS011;38179;52.756;6.906;2023-05-25T13:22:53;26.15;;;17.38;;
52210;SDS011;38179;52.756;6.906;2023-05-25T13:25:19;23.75;;;18.13;;
52210;SDS011;38179;52.756;6.906;2023-05-25T13:27:51;26.38;;;18.15;;
52210;SDS011;38179;52.756;6.906;2023-05-25T13:30:17;26.83;;;18.30;;
52210;SDS011;38179;52.756;6.906;2023-05-25T13:32:45;21.80;;;17.83;;
52210;SDS011;38179;52.756;6.906;2023-05-25T13:35:11;29.52;;;18.30;;
52210;SDS011;38179;52.756;6.906;2023-05-25T13:37:46;26.17;;;18.17;;
52210;SDS011;38179;52.756;6.906;2023-05-25T13:40:11;24.75;;;18.20;;
52210;SDS011;38179;52.756;6.906;2023-05-25T13:42:37;24.67;;;18.35;;
52210;SDS011;38179;52.756;6.906;2023-05-25T13:45:03;23.60;;;18.15;;
52210;SDS011;38179;52.756;6.906;2023-05-25T13:47:30;25.65;;;18.25;;
52210;SDS011;38179;52.756;6.906;2023-05-25T13:49:55;24.70;;;19.30;;
52210;SDS011;38179;52.756;6.906;2023-05-25T13:52:21;25.58;;;17.70;;
52210;SDS011;38179;52.756;6.906;2023-05-25T13:54:47;27.73;;;18.38;;
52210;SDS011;38179;52.756;6.906;2023-05-25T13:57:13;27.08;;;18.83;;
52210;SDS011;38179;52.756;6.906;2023-05-25T13:59:39;25.83;;;18.83;;
52210;SDS011;38179;52.756;6.906;2023-05-25T14:02:05;26.67;;;18.15;;
52210;SDS011;38179;52.756;6.906;2023-05-25T14:04:31;24.55;;;17.63;;
52210;SDS011;38179;52.756;6.906;2023-05-25T14:06:57;24.70;;;18.77;;
52210;SDS011;38179;52.756;6.906;2023-05-25T14:09:23;23.95;;;18.95;;
52210;SDS011;38179;52.756;6.906;2023-05-25T14:11:49;29.48;;;19.42;;
52210;SDS011;38179;52.756;6.906;2023-05-25T14:14:16;31.25;;;18.80;;
52210;SDS011;38179;52.756;6.906;2023-05-25T14:16:42;29.55;;;19.15;;
52210;SDS011;38179;52.756;6.906;2023-05-25T14:19:08;25.38;;;18.33;;
52210;SDS011;38179;52.756;6.906;2023-05-25T14:21:34;28.52;;;18.63;;
52210;SDS011;38179;52.756;6.906;2023-05-25T14:24:01;26.30;;;18.42;;
52210;SDS011;38179;52.756;6.906;2023-05-25T14:26:27;26.48;;;18.80;;
52210;SDS011;38179;52.756;6.906;2023-05-25T14:28:53;23.23;;;18.33;;
52210;SDS011;38179;52.756;6.906;2023-05-25T14:31:19;28.50;;;19.00;;
52210;SDS011;38179;52.756;6.906;2023-05-25T14:33:45;32.85;;;19.83;;
52210;SDS011;38179;52.756;6.906;2023-05-25T14:36:11;24.77;;;18.48;;
52210;SDS011;38179;52.756;6.906;2023-05-25T14:38:37;22.25;;;18.55;;
52210;SDS011;38179;52.756;6.906;2023-05-25T14:41:03;28.58;;;19.52;;
52210;SDS011;38179;52.756;6.906;2023-05-25T14:43:29;26.45;;;18.83;;